Pelly Crossing, Canada
Current Conditions -  °F | °C
As of 4:00 PM on Friday 31 Oct 2014 (Local Time) from CYMA Reporting Station
Broken Clouds Broken Clouds  
Wind Chill: 21°   Ceiling: 3000
Heat Index: 27°   Visibility: 20mi
Dew Point: 21°   Wind: 5mph
Humidity: 80%   Direction: 230°SW
Pressure: 29.36"   Gusts: NA
Location:  62.83°N, 136.58°W
Report Text: CYMA 312300Z 23004KT 190V260 20SM FEW012 SCT018 BKN030 M03/M06 A2936 RMK SC1SC3SC3 SLP974
Loading
Personal Weather Stations






























Interactive Weather Map
Tropical Storm Tracking
New forecast layout! Learn more

10-Day Weather Forecast

Advertisements
Track Severe Weather on mobile